sensor_id;sensor_type;location;lat;lon;timestamp;pressure;altitude;pressure_sealevel;temperature;humidity
10135;BME280;5107;48.850;8.924;2022-09-13T00:00:53;96478.06;;;16.31;70.02
10135;BME280;5107;48.850;8.924;2022-09-13T00:03:20;96469.31;;;16.24;70.68
10135;BME280;5107;48.850;8.924;2022-09-13T00:05:47;96475.47;;;16.18;71.17
10135;BME280;5107;48.850;8.924;2022-09-13T00:08:16;96471.19;;;16.11;71.58
10135;BME280;5107;48.850;8.924;2022-09-13T00:10:45;96467.16;;;16.02;71.81
10135;BME280;5107;48.850;8.924;2022-09-13T00:13:14;96465.38;;;15.89;72.54
10135;BME280;5107;48.850;8.924;2022-09-13T00:15:43;96458.22;;;15.83;72.52
10135;BME280;5107;48.850;8.924;2022-09-13T00:18:10;96468.03;;;15.76;73.20
10135;BME280;5107;48.850;8.924;2022-09-13T00:20:38;96462.13;;;15.74;73.40
10135;BME280;5107;48.850;8.924;2022-09-13T00:23:05;96462.75;;;15.76;73.42
10135;BME280;5107;48.850;8.924;2022-09-13T00:25:32;96468.69;;;15.71;73.65
10135;BME280;5107;48.850;8.924;2022-09-13T00:28:01;96463.56;;;15.70;73.85
10135;BME280;5107;48.850;8.924;2022-09-13T00:30:28;96467.88;;;15.71;73.89
10135;BME280;5107;48.850;8.924;2022-09-13T00:32:55;96468.03;;;15.76;73.83
10135;BME280;5107;48.850;8.924;2022-09-13T00:35:23;96456.22;;;15.78;73.69
10135;BME280;5107;48.850;8.924;2022-09-13T00:37:50;96457.84;;;15.79;73.58
10135;BME280;5107;48.850;8.924;2022-09-13T00:40:17;96453.75;;;15.77;73.55
10135;BME280;5107;48.850;8.924;2022-09-13T00:42:44;96451.72;;;15.79;73.56
10135;BME280;5107;48.850;8.924;2022-09-13T00:45:16;96441.50;;;15.82;73.34
10135;BME280;5107;48.850;8.924;2022-09-13T00:47:48;96432.94;;;15.80;73.47
10135;BME280;5107;48.850;8.924;2022-09-13T00:50:21;96423.16;;;15.81;73.68
10135;BME280;5107;48.850;8.924;2022-09-13T00:52:54;96436.38;;;15.87;73.38
10135;BME280;5107;48.850;8.924;2022-09-13T00:55:28;96435.38;;;15.82;73.44
10135;BME280;5107;48.850;8.924;2022-09-13T00:58:01;96440.09;;;15.80;73.67
10135;BME280;5107;48.850;8.924;2022-09-13T01:00:32;96429.06;;;15.76;73.81
10135;BME280;5107;48.850;8.924;2022-09-13T01:03:03;96428.44;;;15.74;73.76
10135;BME280;5107;48.850;8.924;2022-09-13T01:05:37;96435.38;;;15.75;73.74
10135;BME280;5107;48.850;8.924;2022-09-13T01:08:08;96429.88;;;15.77;73.84
10135;BME280;5107;48.850;8.924;2022-09-13T01:10:43;96432.56;;;15.70;73.97
10135;BME280;5107;48.850;8.924;2022-09-13T01:13:15;96427.06;;;15.72;74.11
10135;BME280;5107;48.850;8.924;2022-09-13T01:15:45;96436.44;;;15.68;74.18
10135;BME280;5107;48.850;8.924;2022-09-13T01:18:13;96434.22;;;15.65;74.13
10135;BME280;5107;48.850;8.924;2022-09-13T01:20:56;96441.34;;;15.64;74.19
10135;BME280;5107;48.850;8.924;2022-09-13T01:24:10;96438.72;;;15.64;74.07
10135;BME280;5107;48.850;8.924;2022-09-13T01:27:34;96442.56;;;15.62;74.05
10135;BME280;5107;48.850;8.924;2022-09-13T01:30:19;96430.13;;;15.62;74.13
10135;BME280;5107;48.850;8.924;2022-09-13T01:33:08;96431.97;;;15.62;73.95
10135;BME280;5107;48.850;8.924;2022-09-13T01:35:50;96430.94;;;15.63;74.28
10135;BME280;5107;48.850;8.924;2022-09-13T01:38:41;96421.97;;;15.57;74.37
10135;BME280;5107;48.850;8.924;2022-09-13T01:41:28;96435.47;;;15.55;74.30
10135;BME280;5107;48.850;8.924;2022-09-13T01:44:09;96441.34;;;15.51;74.33
10135;BME280;5107;48.850;8.924;2022-09-13T01:46:46;96440.31;;;15.52;74.17
10135;BME280;5107;48.850;8.924;2022-09-13T01:49:19;96439.91;;;15.48;74.61
10135;BME280;5107;48.850;8.924;2022-09-13T01:51:51;96430.94;;;15.49;74.70
10135;BME280;5107;48.850;8.924;2022-09-13T01:54:30;96427.91;;;15.46;74.68
10135;BME280;5107;48.850;8.924;2022-09-13T01:57:08;96436.06;;;15.44;74.56
10135;BME280;5107;48.850;8.924;2022-09-13T01:59:47;96428.94;;;15.38;74.99
10135;BME280;5107;48.850;8.924;2022-09-13T02:02:22;96433.22;;;15.39;74.67
10135;BME280;5107;48.850;8.924;2022-09-13T02:04:59;96445.03;;;15.43;74.82
10135;BME280;5107;48.850;8.924;2022-09-13T02:07:33;96438.53;;;15.39;74.74
10135;BME280;5107;48.850;8.924;2022-09-13T02:10:08;96445.88;;;15.37;74.73
10135;BME280;5107;48.850;8.924;2022-09-13T02:12:40;96447.06;;;15.35;75.03
10135;BME280;5107;48.850;8.924;2022-09-13T02:15:13;96450.94;;;15.32;75.38
10135;BME280;5107;48.850;8.924;2022-09-13T02:17:48;96453.00;;;15.30;75.34
10135;BME280;5107;48.850;8.924;2022-09-13T02:20:22;96446.91;;;15.30;75.17
10135;BME280;5107;48.850;8.924;2022-09-13T02:22:55;96448.50;;;15.24;75.46
10135;BME280;5107;48.850;8.924;2022-09-13T02:25:25;96441.78;;;15.15;75.95
10135;BME280;5107;48.850;8.924;2022-09-13T02:27:56;96444.03;;;15.11;75.89
10135;BME280;5107;48.850;8.924;2022-09-13T02:30:27;96446.09;;;15.03;76.80
10135;BME280;5107;48.850;8.924;2022-09-13T02:33:03;96446.28;;;15.01;76.34
10135;BME280;5107;48.850;8.924;2022-09-13T02:35:34;96449.13;;;15.00;76.91
10135;BME280;5107;48.850;8.924;2022-09-13T02:38:05;96450.78;;;15.01;76.47
10135;BME280;5107;48.850;8.924;2022-09-13T02:40:41;96451.78;;;15.00;76.29
10135;BME280;5107;48.850;8.924;2022-09-13T02:43:13;96459.72;;;15.00;76.24
10135;BME280;5107;48.850;8.924;2022-09-13T02:45:47;96447.72;;;15.04;76.60
10135;BME280;5107;48.850;8.924;2022-09-13T02:48:27;96450.38;;;15.04;76.21
10135;BME280;5107;48.850;8.924;2022-09-13T02:51:01;96453.03;;;15.04;76.18
10135;BME280;5107;48.850;8.924;2022-09-13T02:53:38;96447.72;;;15.04;75.91
10135;BME280;5107;48.850;8.924;2022-09-13T02:56:19;96439.97;;;14.96;76.17
10135;BME280;5107;48.850;8.924;2022-09-13T02:58:51;96430.00;;;14.98;76.40
10135;BME280;5107;48.850;8.924;2022-09-13T03:01:23;96428.56;;;15.02;76.04
10135;BME280;5107;48.850;8.924;2022-09-13T03:03:52;96427.53;;;15.03;75.97
10135;BME280;5107;48.850;8.924;2022-09-13T03:06:24;96424.88;;;14.90;76.17
10135;BME280;5107;48.850;8.924;2022-09-13T03:08:51;96421.81;;;14.86;76.55
10135;BME280;5107;48.850;8.924;2022-09-13T03:11:29;96425.31;;;14.80;76.54
10135;BME280;5107;48.850;8.924;2022-09-13T03:14:17;96422.41;;;14.81;76.46
10135;BME280;5107;48.850;8.924;2022-09-13T03:17:06;96414.28;;;14.83;76.57
10135;BME280;5107;48.850;8.924;2022-09-13T03:19:57;96417.13;;;14.81;76.22
10135;BME280;5107;48.850;8.924;2022-09-13T03:28:54;96435.66;;;14.68;76.70
10135;BME280;5107;48.850;8.924;2022-09-13T03:31:31;96435.66;;;14.68;76.63
10135;BME280;5107;48.850;8.924;2022-09-13T03:34:08;96436.09;;;14.78;75.96
10135;BME280;5107;48.850;8.924;2022-09-13T03:36:43;96432.00;;;14.82;75.79
10135;BME280;5107;48.850;8.924;2022-09-13T03:39:20;96420.41;;;14.84;75.97
10135;BME280;5107;48.850;8.924;2022-09-13T03:41:53;96419.78;;;14.68;76.44
10135;BME280;5107;48.850;8.924;2022-09-13T03:44:23;96415.88;;;14.58;76.83
10135;BME280;5107;48.850;8.924;2022-09-13T03:46:56;96420.16;;;14.52;77.52
10135;BME280;5107;48.850;8.924;2022-09-13T03:49:26;96412.22;;;14.46;77.58
10135;BME280;5107;48.850;8.924;2022-09-13T03:51:56;96414.22;;;14.37;77.88
10135;BME280;5107;48.850;8.924;2022-09-13T03:54:27;96414.59;;;14.34;77.93
10135;BME280;5107;48.850;8.924;2022-09-13T03:57:10;96399.34;;;14.29;77.93
10135;BME280;5107;48.850;8.924;2022-09-13T03:59:41;96403.38;;;14.19;78.65
10135;BME280;5107;48.850;8.924;2022-09-13T04:02:10;96403.16;;;14.14;78.82
10135;BME280;5107;48.850;8.924;2022-09-13T04:04:38;96393.41;;;14.14;79.01
10135;BME280;5107;48.850;8.924;2022-09-13T04:07:08;96391.13;;;14.11;79.00
10135;BME280;5107;48.850;8.924;2022-09-13T04:09:36;96395.00;;;14.09;78.93
10135;BME280;5107;48.850;8.924;2022-09-13T04:12:04;96402.28;;;14.00;78.60
10135;BME280;5107;48.850;8.924;2022-09-13T04:14:31;96400.44;;;13.94;79.43
10135;BME280;5107;48.850;8.924;2022-09-13T04:16:58;96396.78;;;13.88;79.86
10135;BME280;5107;48.850;8.924;2022-09-13T04:19:26;96408.94;;;13.83;80.33
10135;BME280;5107;48.850;8.924;2022-09-13T04:21:54;96421.31;;;13.76;80.65
10135;BME280;5107;48.850;8.924;2022-09-13T04:24:25;96437.63;;;13.79;81.13
10135;BME280;5107;48.850;8.924;2022-09-13T04:26:53;96432.16;;;13.87;80.55
10135;BME280;5107;48.850;8.924;2022-09-13T04:29:22;96434.00;;;13.93;80.23
10135;BME280;5107;48.850;8.924;2022-09-13T04:31:51;96428.56;;;14.01;79.59
10135;BME280;5107;48.850;8.924;2022-09-13T04:34:19;96431.59;;;13.98;80.07
10135;BME280;5107;48.850;8.924;2022-09-13T04:36:47;96423.88;;;14.03;79.74
10135;BME280;5107;48.850;8.924;2022-09-13T04:39:15;96423.09;;;14.10;79.89
10135;BME280;5107;48.850;8.924;2022-09-13T04:41:44;96425.94;;;14.08;79.63
10135;BME280;5107;48.850;8.924;2022-09-13T04:44:15;96425.72;;;14.10;79.63
10135;BME280;5107;48.850;8.924;2022-09-13T04:46:45;96434.69;;;14.15;79.14
10135;BME280;5107;48.850;8.924;2022-09-13T04:49:14;96436.75;;;14.20;79.08
10135;BME280;5107;48.850;8.924;2022-09-13T04:51:41;96443.06;;;14.25;78.92
10135;BME280;5107;48.850;8.924;2022-09-13T04:54:09;96446.94;;;14.23;78.83
10135;BME280;5107;48.850;8.924;2022-09-13T04:56:37;96441.03;;;14.21;79.32
10135;BME280;5107;48.850;8.924;2022-09-13T04:59:06;96445.91;;;14.24;78.94
10135;BME280;5107;48.850;8.924;2022-09-13T05:01:33;96430.47;;;14.34;78.37
10135;BME280;5107;48.850;8.924;2022-09-13T05:04:00;96436.97;;;14.31;78.14
10135;BME280;5107;48.850;8.924;2022-09-13T05:06:27;96449.38;;;14.24;79.38
10135;BME280;5107;48.850;8.924;2022-09-13T05:08:56;96446.34;;;14.21;79.33
10135;BME280;5107;48.850;8.924;2022-09-13T05:11:24;96443.88;;;14.19;79.18
10135;BME280;5107;48.850;8.924;2022-09-13T05:13:54;96444.53;;;14.28;79.23
10135;BME280;5107;48.850;8.924;2022-09-13T05:16:25;96442.50;;;14.30;78.10
10135;BME280;5107;48.850;8.924;2022-09-13T05:18:53;96441.63;;;14.23;78.28
10135;BME280;5107;48.850;8.924;2022-09-13T05:21:21;96450.81;;;14.27;78.79
10135;BME280;5107;48.850;8.924;2022-09-13T05:23:49;96454.94;;;14.36;78.36
10135;BME280;5107;48.850;8.924;2022-09-13T05:26:17;96467.00;;;14.45;78.01
10135;BME280;5107;48.850;8.924;2022-09-13T05:28:44;96470.28;;;14.47;77.94
10135;BME280;5107;48.850;8.924;2022-09-13T05:31:15;96467.63;;;14.47;77.43
10135;BME280;5107;48.850;8.924;2022-09-13T05:33:46;96461.53;;;14.73;76.43
10135;BME280;5107;48.850;8.924;2022-09-13T05:36:14;96461.97;;;14.63;76.81
10135;BME280;5107;48.850;8.924;2022-09-13T05:38:41;96464.41;;;14.71;77.14
10135;BME280;5107;48.850;8.924;2022-09-13T05:41:08;96473.38;;;14.64;77.52
10135;BME280;5107;48.850;8.924;2022-09-13T05:43:36;96467.84;;;14.59;77.33
10135;BME280;5107;48.850;8.924;2022-09-13T05:46:05;96462.34;;;14.60;76.46
10135;BME280;5107;48.850;8.924;2022-09-13T05:48:33;96457.84;;;14.54;76.78
10135;BME280;5107;48.850;8.924;2022-09-13T05:51:08;96446.66;;;14.59;76.85
10135;BME280;5107;48.850;8.924;2022-09-13T05:53:36;96445.25;;;14.69;77.84
10135;BME280;5107;48.850;8.924;2022-09-13T05:56:05;96450.16;;;14.72;76.18
10135;BME280;5107;48.850;8.924;2022-09-13T05:58:33;96453.19;;;14.76;76.34
10135;BME280;5107;48.850;8.924;2022-09-13T06:01:00;96462.97;;;14.82;76.46
10135;BME280;5107;48.850;8.924;2022-09-13T06:03:27;96479.09;;;14.87;76.13
10135;BME280;5107;48.850;8.924;2022-09-13T06:05:55;96480.72;;;14.95;75.95
10135;BME280;5107;48.850;8.924;2022-09-13T06:08:26;96485.22;;;14.94;75.88
10135;BME280;5107;48.850;8.924;2022-09-13T06:10:56;96487.66;;;14.89;76.05
10135;BME280;5107;48.850;8.924;2022-09-13T06:13:24;96492.53;;;14.99;76.78
10135;BME280;5107;48.850;8.924;2022-09-13T06:15:53;96490.94;;;15.11;75.91
10135;BME280;5107;48.850;8.924;2022-09-13T06:18:20;96484.19;;;15.08;76.22
10135;BME280;5107;48.850;8.924;2022-09-13T06:20:48;96480.53;;;15.03;75.32
10135;BME280;5107;48.850;8.924;2022-09-13T06:23:15;96482.38;;;14.96;75.51
10135;BME280;5107;48.850;8.924;2022-09-13T06:25:44;96471.97;;;14.94;76.13
10135;BME280;5107;48.850;8.924;2022-09-13T06:28:11;96469.50;;;14.93;76.26
10135;BME280;5107;48.850;8.924;2022-09-13T06:30:38;96474.00;;;14.99;76.54
10135;BME280;5107;48.850;8.924;2022-09-13T06:33:05;96464.66;;;15.23;75.74
10135;BME280;5107;48.850;8.924;2022-09-13T06:35:32;96474.63;;;15.53;73.96
10135;BME280;5107;48.850;8.924;2022-09-13T06:37:59;96479.88;;;15.80;73.40
10135;BME280;5107;48.850;8.924;2022-09-13T06:40:26;96469.22;;;15.93;72.49
10135;BME280;5107;48.850;8.924;2022-09-13T06:42:55;96474.06;;;16.09;72.17
10135;BME280;5107;48.850;8.924;2022-09-13T06:45:22;96477.72;;;16.21;71.59
10135;BME280;5107;48.850;8.924;2022-09-13T06:47:49;96470.56;;;16.60;70.48
10135;BME280;5107;48.850;8.924;2022-09-13T06:50:18;96463.72;;;17.08;69.31
10135;BME280;5107;48.850;8.924;2022-09-13T06:52:45;96455.91;;;17.14;68.76
10135;BME280;5107;48.850;8.924;2022-09-13T06:55:13;96454.47;;;17.36;68.49
10135;BME280;5107;48.850;8.924;2022-09-13T06:57:40;96449.47;;;17.71;66.46
10135;BME280;5107;48.850;8.924;2022-09-13T07:00:10;96455.53;;;18.14;65.82
10135;BME280;5107;48.850;8.924;2022-09-13T07:02:38;96454.53;;;18.45;64.46
10135;BME280;5107;48.850;8.924;2022-09-13T07:05:06;96450.50;;;18.73;64.10
10135;BME280;5107;48.850;8.924;2022-09-13T07:07:33;96451.06;;;18.75;63.06
10135;BME280;5107;48.850;8.924;2022-09-13T07:10:00;96444.56;;;18.52;63.77
10135;BME280;5107;48.850;8.924;2022-09-13T07:12:27;96448.00;;;18.60;63.46
10135;BME280;5107;48.850;8.924;2022-09-13T07:14:54;96443.53;;;18.53;64.88
10135;BME280;5107;48.850;8.924;2022-09-13T07:17:23;96441.91;;;18.52;64.06
10135;BME280;5107;48.850;8.924;2022-09-13T07:19:50;96436.28;;;18.61;64.67
10135;BME280;5107;48.850;8.924;2022-09-13T07:22:17;96439.00;;;18.72;63.89
10135;BME280;5107;48.850;8.924;2022-09-13T07:24:44;96437.88;;;18.80;63.60
10135;BME280;5107;48.850;8.924;2022-09-13T07:27:11;96438.53;;;18.75;63.28
10135;BME280;5107;48.850;8.924;2022-09-13T07:29:39;96438.25;;;18.95;63.17
10135;BME280;5107;48.850;8.924;2022-09-13T07:32:06;96444.41;;;18.95;62.82
10135;BME280;5107;48.850;8.924;2022-09-13T07:34:35;96449.91;;;19.36;63.32
10135;BME280;5107;48.850;8.924;2022-09-13T07:37:02;96452.50;;;19.65;61.30
10135;BME280;5107;48.850;8.924;2022-09-13T07:39:29;96453.25;;;20.01;61.81
10135;BME280;5107;48.850;8.924;2022-09-13T07:41:56;96452.50;;;20.17;60.20
10135;BME280;5107;48.850;8.924;2022-09-13T07:44:23;96462.03;;;20.36;59.35
10135;BME280;5107;48.850;8.924;2022-09-13T07:46:50;96454.09;;;20.70;60.59
10135;BME280;5107;48.850;8.924;2022-09-13T07:49:18;96448.97;;;21.13;57.65
10135;BME280;5107;48.850;8.924;2022-09-13T07:51:47;96446.25;;;21.42;57.02
10135;BME280;5107;48.850;8.924;2022-09-13T07:54:17;96459.63;;;21.58;56.18
10135;BME280;5107;48.850;8.924;2022-09-13T07:56:44;96447.19;;;21.52;56.70
10135;BME280;5107;48.850;8.924;2022-09-13T07:59:14;96446.25;;;21.97;54.87
10135;BME280;5107;48.850;8.924;2022-09-13T08:01:43;96447.13;;;22.03;55.39
10135;BME280;5107;48.850;8.924;2022-09-13T08:04:12;96443.16;;;21.88;56.38
10135;BME280;5107;48.850;8.924;2022-09-13T08:06:40;96435.06;;;22.00;54.48
10135;BME280;5107;48.850;8.924;2022-09-13T08:09:10;96430.09;;;21.92;54.48
10135;BME280;5107;48.850;8.924;2022-09-13T08:11:40;96422.34;;;21.74;55.18
10135;BME280;5107;48.850;8.924;2022-09-13T08:14:10;96419.53;;;21.47;56.73
10135;BME280;5107;48.850;8.924;2022-09-13T08:16:38;96428.81;;;21.78;55.79
10135;BME280;5107;48.850;8.924;2022-09-13T08:19:09;96443.06;;;21.62;57.70
10135;BME280;5107;48.850;8.924;2022-09-13T08:21:39;96442.56;;;21.65;59.13
10135;BME280;5107;48.850;8.924;2022-09-13T08:24:13;96443.41;;;22.04;55.71
10135;BME280;5107;48.850;8.924;2022-09-13T08:26:40;96434.38;;;22.31;56.96
10135;BME280;5107;48.850;8.924;2022-09-13T08:29:07;96427.63;;;22.78;55.05
10135;BME280;5107;48.850;8.924;2022-09-13T08:31:35;96429.09;;;23.22;53.88
10135;BME280;5107;48.850;8.924;2022-09-13T08:34:02;96431.91;;;23.37;53.90
10135;BME280;5107;48.850;8.924;2022-09-13T08:36:30;96425.91;;;23.57;53.63
10135;BME280;5107;48.850;8.924;2022-09-13T08:38:58;96424.91;;;23.68;52.99
10135;BME280;5107;48.850;8.924;2022-09-13T08:44:48;96422.63;;;23.50;53.11
10135;BME280;5107;48.850;8.924;2022-09-13T08:47:33;96438.44;;;23.89;56.07
10135;BME280;5107;48.850;8.924;2022-09-13T08:50:11;96440.19;;;24.20;52.80
10135;BME280;5107;48.850;8.924;2022-09-13T08:52:53;96426.91;;;24.61;51.00
10135;BME280;5107;48.850;8.924;2022-09-13T08:55:33;96425.97;;;25.17;49.50
10135;BME280;5107;48.850;8.924;2022-09-13T08:58:25;96428.63;;;25.53;50.27
10135;BME280;5107;48.850;8.924;2022-09-13T09:01:02;96418.94;;;25.67;47.39
10135;BME280;5107;48.850;8.924;2022-09-13T09:03:40;96421.06;;;25.55;49.55
10135;BME280;5107;48.850;8.924;2022-09-13T09:06:13;96414.53;;;26.01;46.68
10135;BME280;5107;48.850;8.924;2022-09-13T09:08:45;96409.53;;;26.44;45.24
10135;BME280;5107;48.850;8.924;2022-09-13T09:11:24;96421.34;;;25.48;46.46
10135;BME280;5107;48.850;8.924;2022-09-13T09:14:01;96423.53;;;25.66;45.80
10135;BME280;5107;48.850;8.924;2022-09-13T09:16:36;96436.16;;;25.81;47.53
10135;BME280;5107;48.850;8.924;2022-09-13T09:19:18;96435.56;;;26.10;45.58
10135;BME280;5107;48.850;8.924;2022-09-13T09:21:49;96433.66;;;26.10;45.71
10135;BME280;5107;48.850;8.924;2022-09-13T09:24:20;96429.91;;;25.96;44.59
10135;BME280;5107;48.850;8.924;2022-09-13T09:26:49;96430.75;;;25.91;44.67
10135;BME280;5107;48.850;8.924;2022-09-13T09:29:20;96425.13;;;25.73;44.97
10135;BME280;5107;48.850;8.924;2022-09-13T09:32:04;96424.19;;;26.13;47.30
10135;BME280;5107;48.850;8.924;2022-09-13T09:34:48;96424.00;;;25.94;43.48
10135;BME280;5107;48.850;8.924;2022-09-13T09:37:21;96422.72;;;25.66;44.00
10135;BME280;5107;48.850;8.924;2022-09-13T09:39:49;96429.72;;;25.31;45.05
10135;BME280;5107;48.850;8.924;2022-09-13T09:42:20;96433.25;;;25.27;46.27
10135;BME280;5107;48.850;8.924;2022-09-13T09:44:54;96437.78;;;25.11;48.01
10135;BME280;5107;48.850;8.924;2022-09-13T09:47:25;96448.78;;;24.74;51.62
10135;BME280;5107;48.850;8.924;2022-09-13T09:49:58;96458.88;;;24.37;53.12
10135;BME280;5107;48.850;8.924;2022-09-13T09:52:40;96460.81;;;24.51;53.84
10135;BME280;5107;48.850;8.924;2022-09-13T09:55:22;96464.38;;;24.77;53.86
10135;BME280;5107;48.850;8.924;2022-09-13T09:57:55;96466.09;;;24.93;50.78
10135;BME280;5107;48.850;8.924;2022-09-13T10:00:25;96456.88;;;24.84;51.87
10135;BME280;5107;48.850;8.924;2022-09-13T10:02:57;96454.50;;;25.03;50.87
10135;BME280;5107;48.850;8.924;2022-09-13T10:05:26;96451.28;;;25.16;50.60
10135;BME280;5107;48.850;8.924;2022-09-13T10:08:00;96445.34;;;25.29;49.20
10135;BME280;5107;48.850;8.924;2022-09-13T10:10:35;96444.56;;;25.64;47.55
10135;BME280;5107;48.850;8.924;2022-09-13T10:13:06;96446.41;;;25.89;47.45
10135;BME280;5107;48.850;8.924;2022-09-13T10:15:35;96438.19;;;26.30;47.93
10135;BME280;5107;48.850;8.924;2022-09-13T10:18:14;96428.47;;;26.29;47.22
10135;BME280;5107;48.850;8.924;2022-09-13T10:20:51;96431.72;;;26.36;44.90
10135;BME280;5107;48.850;8.924;2022-09-13T10:23:25;96435.00;;;26.18;44.29
10135;BME280;5107;48.850;8.924;2022-09-13T10:26:05;96440.69;;;25.96;45.05
10135;BME280;5107;48.850;8.924;2022-09-13T10:28:41;96439.41;;;26.58;45.57
10135;BME280;5107;48.850;8.924;2022-09-13T10:31:12;96442.34;;;26.66;44.25
10135;BME280;5107;48.850;8.924;2022-09-13T10:33:43;96447.59;;;26.97;43.63
10135;BME280;5107;48.850;8.924;2022-09-13T10:36:19;96440.75;;;27.43;43.19
10135;BME280;5107;48.850;8.924;2022-09-13T10:38:57;96438.09;;;27.38;42.10
10135;BME280;5107;48.850;8.924;2022-09-13T10:41:27;96440.97;;;27.52;42.02
10135;BME280;5107;48.850;8.924;2022-09-13T10:44:00;96434.91;;;27.65;42.34
10135;BME280;5107;48.850;8.924;2022-09-13T10:46:31;96423.28;;;27.65;39.50
10135;BME280;5107;48.850;8.924;2022-09-13T10:49:00;96415.44;;;27.63;42.82
10135;BME280;5107;48.850;8.924;2022-09-13T10:51:35;96420.16;;;27.47;41.04
10135;BME280;5107;48.850;8.924;2022-09-13T10:54:16;96422.22;;;26.88;42.47
10135;BME280;5107;48.850;8.924;2022-09-13T10:56:44;96422.91;;;26.64;41.24
10135;BME280;5107;48.850;8.924;2022-09-13T10:59:19;96414.13;;;26.43;40.65
10135;BME280;5107;48.850;8.924;2022-09-13T11:02:08;96418.44;;;26.44;40.14
10135;BME280;5107;48.850;8.924;2022-09-13T11:04:56;96422.38;;;26.62;40.55
10135;BME280;5107;48.850;8.924;2022-09-13T11:07:42;96425.66;;;26.59;40.02
10135;BME280;5107;48.850;8.924;2022-09-13T11:10:22;96422.91;;;26.69;42.29
10135;BME280;5107;48.850;8.924;2022-09-13T11:13:00;96424.22;;;26.72;45.04
10135;BME280;5107;48.850;8.924;2022-09-13T11:15:46;96418.88;;;26.62;44.65
10135;BME280;5107;48.850;8.924;2022-09-13T11:18:31;96419.81;;;26.42;44.77
10135;BME280;5107;48.850;8.924;2022-09-13T11:21:12;96416.84;;;26.38;45.04
10135;BME280;5107;48.850;8.924;2022-09-13T11:24:18;96416.25;;;26.47;44.19
10135;BME280;5107;48.850;8.924;2022-09-13T11:26:58;96419.75;;;26.52;45.06
10135;BME280;5107;48.850;8.924;2022-09-13T11:30:00;96430.25;;;26.54;44.51
10135;BME280;5107;48.850;8.924;2022-09-13T11:32:56;96434.97;;;26.82;46.01
10135;BME280;5107;48.850;8.924;2022-09-13T11:35:41;96437.94;;;27.25;45.77
10135;BME280;5107;48.850;8.924;2022-09-13T11:38:34;96432.03;;;27.51;44.56
10135;BME280;5107;48.850;8.924;2022-09-13T11:41:18;96425.16;;;27.35;42.12
10135;BME280;5107;48.850;8.924;2022-09-13T11:44:17;96430.38;;;26.82;43.40
10135;BME280;5107;48.850;8.924;2022-09-13T11:46:54;96431.59;;;26.56;46.21
10135;BME280;5107;48.850;8.924;2022-09-13T11:49:44;96434.25;;;26.66;43.70
10135;BME280;5107;48.850;8.924;2022-09-13T11:52:28;96440.81;;;26.99;48.20
10135;BME280;5107;48.850;8.924;2022-09-13T11:55:10;96423.56;;;27.29;43.31
10135;BME280;5107;48.850;8.924;2022-09-13T11:57:43;96422.59;;;27.49;42.17
10135;BME280;5107;48.850;8.924;2022-09-13T12:00:20;96423.06;;;27.61;41.86
10135;BME280;5107;48.850;8.924;2022-09-13T12:02:58;96433.66;;;27.52;42.03
10135;BME280;5107;48.850;8.924;2022-09-13T12:05:31;96433.91;;;27.56;40.86
10135;BME280;5107;48.850;8.924;2022-09-13T12:08:05;96426.59;;;27.56;40.91
10135;BME280;5107;48.850;8.924;2022-09-13T12:10:42;96416.63;;;28.05;40.49
10135;BME280;5107;48.850;8.924;2022-09-13T12:13:17;96419.69;;;27.98;39.23
10135;BME280;5107;48.850;8.924;2022-09-13T12:15:51;96406.22;;;27.69;39.64
10135;BME280;5107;48.850;8.924;2022-09-13T12:18:23;96409.75;;;27.65;39.99
10135;BME280;5107;48.850;8.924;2022-09-13T12:20:54;96406.75;;;27.66;40.25
10135;BME280;5107;48.850;8.924;2022-09-13T12:23:29;96409.19;;;27.68;39.86
10135;BME280;5107;48.850;8.924;2022-09-13T12:26:01;96397.03;;;27.65;39.91
10135;BME280;5107;48.850;8.924;2022-09-13T12:28:35;96391.41;;;27.62;40.50
10135;BME280;5107;48.850;8.924;2022-09-13T12:31:10;96391.03;;;27.39;39.78
10135;BME280;5107;48.850;8.924;2022-09-13T12:33:39;96385.88;;;27.43;39.37
10135;BME280;5107;48.850;8.924;2022-09-13T12:36:38;96371.47;;;27.52;39.59
10135;BME280;5107;48.850;8.924;2022-09-13T12:40:06;96368.44;;;27.59;41.79
10135;BME280;5107;48.850;8.924;2022-09-13T12:43:04;96358.47;;;28.02;40.71
10135;BME280;5107;48.850;8.924;2022-09-13T12:45:58;96354.84;;;27.88;39.57
10135;BME280;5107;48.850;8.924;2022-09-13T12:48:52;96343.28;;;27.82;39.34
10135;BME280;5107;48.850;8.924;2022-09-13T12:51:37;96341.75;;;27.47;39.47
10135;BME280;5107;48.850;8.924;2022-09-13T12:57:41;96329.50;;;28.26;39.01
10135;BME280;5107;48.850;8.924;2022-09-13T13:00:29;96324.25;;;28.35;38.99
10135;BME280;5107;48.850;8.924;2022-09-13T13:03:11;96325.81;;;28.55;37.67
10135;BME280;5107;48.850;8.924;2022-09-13T13:05:43;96330.56;;;28.63;37.14
10135;BME280;5107;48.850;8.924;2022-09-13T13:08:26;96326.41;;;28.89;37.42
10135;BME280;5107;48.850;8.924;2022-09-13T13:11:04;96319.81;;;28.95;36.74
10135;BME280;5107;48.850;8.924;2022-09-13T13:13:37;96326.59;;;29.44;35.22
10135;BME280;5107;48.850;8.924;2022-09-13T13:16:22;96324.28;;;29.51;36.52
10135;BME280;5107;48.850;8.924;2022-09-13T13:18:51;96317.94;;;29.42;36.79
10135;BME280;5107;48.850;8.924;2022-09-13T13:21:34;96314.38;;;29.28;35.88
10135;BME280;5107;48.850;8.924;2022-09-13T13:24:45;96319.66;;;29.52;34.76
10135;BME280;5107;48.850;8.924;2022-09-13T13:27:49;96318.88;;;29.19;34.76
10135;BME280;5107;48.850;8.924;2022-09-13T13:31:00;96312.28;;;28.92;35.48
10135;BME280;5107;48.850;8.924;2022-09-13T13:33:28;96302.25;;;28.93;36.17
10135;BME280;5107;48.850;8.924;2022-09-13T13:35:56;96299.63;;;28.50;36.49
10135;BME280;5107;48.850;8.924;2022-09-13T13:38:47;96298.09;;;28.25;37.40
10135;BME280;5107;48.850;8.924;2022-09-13T13:41:46;96299.00;;;27.97;37.43
10135;BME280;5107;48.850;8.924;2022-09-13T13:48:13;96301.78;;;27.92;37.65
10135;BME280;5107;48.850;8.924;2022-09-13T13:51:19;96291.44;;;27.75;38.17
10135;BME280;5107;48.850;8.924;2022-09-13T13:54:01;96291.19;;;27.72;38.57
10135;BME280;5107;48.850;8.924;2022-09-13T13:56:47;96293.09;;;27.71;38.65
10135;BME280;5107;48.850;8.924;2022-09-13T13:59:22;96296.75;;;27.62;38.21
10135;BME280;5107;48.850;8.924;2022-09-13T14:01:55;96297.06;;;27.79;37.61
10135;BME280;5107;48.850;8.924;2022-09-13T14:05:06;96286.13;;;28.08;37.09